Time;durP1;ratioP1;P1;durP2;ratioP2;P2;SDS_P1;SDS_P2;PMS_P1;PMS_P2;Temp;Humidity;BMP_temperature;BMP_pressure;BME280_temperature;BME280_humidity;BME280_pressure;Samples;Min_cycle;Max_cycle;Signal;HPM_P1;HPM_P2
2022/12/11 00:00:11;;;;;;;93.15;38.47;;;-0.30;99.90;;;;;;5038327;28;20473;-73
2022/12/11 00:02:37;;;;;;;75.15;36.90;;;-0.40;99.90;;;;;;5038032;28;20045;-73
2022/12/11 00:05:02;;;;;;;88.97;38.08;;;-0.30;99.90;;;;;;5020833;28;20055;-73
2022/12/11 00:07:28;;;;;;;101.57;40.00;;;-0.40;99.90;;;;;;5037991;28;20420;-73
2022/12/11 00:09:54;;;;;;;80.78;36.22;;;-0.30;99.90;;;;;;5020206;28;20060;-73
2022/12/11 00:12:19;;;;;;;111.10;42.83;;;-0.40;99.90;;;;;;5038035;28;20083;-73
2022/12/11 00:14:45;;;;;;;84.05;35.83;;;0.30;99.90;;;;;;5037939;28;20099;-73
2022/12/11 00:17:11;;;;;;;73.30;33.08;;;-0.30;99.90;;;;;;5038414;28;20049;-73
2022/12/11 00:19:36;;;;;;;79.03;34.22;;;-0.10;99.90;;;;;;5037348;28;20033;-73
2022/12/11 00:22:02;;;;;;;82.68;35.38;;;-0.30;99.90;;;;;;5037423;28;20041;-73
2022/12/11 00:24:27;;;;;;;87.43;36.85;;;0.10;99.90;;;;;;5037618;28;20049;-73
2022/12/11 00:26:53;;;;;;;80.45;36.30;;;-0.30;99.90;;;;;;5037421;28;20454;-73
2022/12/11 00:29:19;;;;;;;85.60;36.08;;;-0.30;99.90;;;;;;5037536;28;20096;-73
2022/12/11 00:31:44;;;;;;;84.57;37.15;;;0.20;99.90;;;;;;5037722;28;20124;-73
2022/12/11 00:34:10;;;;;;;92.68;38.38;;;-0.30;99.90;;;;;;5037913;28;20045;-73
2022/12/11 00:36:37;;;;;;;82.45;36.08;;;-0.30;99.90;;;;;;5036181;28;20053;-73
2022/12/11 00:39:04;;;;;;;91.97;38.40;;;-0.30;99.90;;;;;;5003278;28;20064;-73
2022/12/11 00:41:32;;;;;;;102.18;38.10;;;-0.30;99.90;;;;;;5037258;28;20049;-73
2022/12/11 00:43:58;;;;;;;86.68;37.05;;;-0.20;99.90;;;;;;5019956;28;20033;-73
2022/12/11 00:46:24;;;;;;;82.25;35.65;;;-0.20;99.90;;;;;;5037021;28;20103;-73
2022/12/11 00:48:49;;;;;;;97.78;38.13;;;-0.20;99.90;;;;;;5036791;28;20050;-74
2022/12/11 00:51:19;;;;;;;96.55;38.30;;;-0.20;99.90;;;;;;5036922;28;20135;-73
2022/12/11 00:53:44;;;;;;;78.40;34.40;;;-0.20;99.90;;;;;;5036903;28;20060;-73
2022/12/11 00:56:12;;;;;;;175.23;40.30;;;-0.20;99.90;;;;;;5036936;28;20644;-73
2022/12/11 00:58:38;;;;;;;80.13;34.10;;;-0.20;99.90;;;;;;5037003;28;20119;-73
2022/12/11 01:01:10;;;;;;;95.07;36.50;;;-0.20;99.90;;;;;;5019484;28;20041;-73
2022/12/11 01:03:37;;;;;;;93.90;35.70;;;-0.20;99.90;;;;;;5036335;28;20087;-73
2022/12/11 01:06:03;;;;;;;89.22;35.47;;;-0.20;99.90;;;;;;5019611;28;20057;-73
2022/12/11 01:08:29;;;;;;;93.00;35.10;;;-0.20;99.90;;;;;;5036846;28;20396;-73
2022/12/11 01:11:06;;;;;;;92.90;34.95;;;-0.20;99.90;;;;;;5036445;28;20048;-73
2022/12/11 01:13:32;;;;;;;109.05;36.92;;;-0.20;99.90;;;;;;5036763;28;20041;-73
2022/12/11 01:15:58;;;;;;;98.57;36.15;;;-0.10;99.90;;;;;;5018931;28;20448;-73
2022/12/11 01:18:26;;;;;;;95.65;35.13;;;-0.10;99.90;;;;;;5036214;28;20041;-73
2022/12/11 01:20:52;;;;;;;91.18;34.67;;;-0.10;99.90;;;;;;5036186;28;20416;-73
2022/12/11 01:23:17;;;;;;;92.40;34.95;;;-0.10;99.90;;;;;;5036770;28;20073;-73
2022/12/11 01:25:43;;;;;;;97.15;36.38;;;-0.10;99.90;;;;;;5019217;28;20399;-74
2022/12/11 01:28:09;;;;;;;93.05;35.08;;;-0.10;99.90;;;;;;5036271;28;20037;-73
2022/12/11 01:30:36;;;;;;;97.53;35.00;;;-0.10;99.90;;;;;;5036270;28;20330;-73
2022/12/11 01:33:01;;;;;;;105.63;36.92;;;-0.10;99.90;;;;;;5036008;28;20379;-72
2022/12/11 01:35:27;;;;;;;80.65;34.20;;;0.00;99.90;;;;;;5035840;28;20041;-72
2022/12/11 01:37:53;;;;;;;98.72;35.40;;;0.00;99.90;;;;;;5036416;28;20361;-73
2022/12/11 01:40:20;;;;;;;96.63;36.60;;;0.00;99.90;;;;;;5036562;28;20030;-73
2022/12/11 01:42:45;;;;;;;92.38;34.88;;;0.00;99.90;;;;;;5036198;28;20478;-73
2022/12/11 01:45:20;;;;;;;117.88;38.03;;;0.00;99.90;;;;;;5036022;28;20112;-73
2022/12/11 01:47:49;;;;;;;96.68;35.25;;;0.00;99.90;;;;;;5035692;28;20056;-73
2022/12/11 01:50:15;;;;;;;111.05;37.35;;;0.00;99.90;;;;;;5034935;28;20442;-73
2022/12/11 01:52:45;;;;;;;105.38;36.85;;;0.00;99.90;;;;;;5036228;28;20064;-73
2022/12/11 01:55:11;;;;;;;109.30;35.47;;;0.00;99.90;;;;;;5036005;28;20079;-73
2022/12/11 01:57:41;;;;;;;99.80;36.38;;;0.00;99.90;;;;;;5035931;28;20132;-72
2022/12/11 02:00:08;;;;;;;118.32;38.85;;;0.10;99.90;;;;;;5035737;28;20049;-73
2022/12/11 02:02:33;;;;;;;92.57;34.20;;;0.10;99.90;;;;;;5018604;28;20049;-72
2022/12/11 02:05:02;;;;;;;108.88;36.55;;;0.10;99.90;;;;;;5035462;28;20147;-72
2022/12/11 02:07:50;;;;;;;115.38;37.55;;;0.10;99.90;;;;;;5035847;28;20045;-72
2022/12/11 02:10:19;;;;;;;104.97;35.22;;;0.10;99.90;;;;;;5035656;28;20374;-72
2022/12/11 02:12:47;;;;;;;134.32;39.30;;;0.10;99.90;;;;;;5017916;28;20049;-72
2022/12/11 02:15:22;;;;;;;93.05;35.90;;;0.10;99.90;;;;;;5018107;28;20037;-74
2022/12/11 02:18:01;;;;;;;114.40;37.20;;;0.10;99.90;;;;;;5034921;28;20138;-72
2022/12/11 02:20:57;;;;;;;112.47;39.30;;;0.10;99.90;;;;;;5018022;28;20042;-72
2022/12/11 02:23:50;;;;;;;103.93;37.20;;;0.10;99.90;;;;;;5018248;28;20060;-73
2022/12/11 02:27:04;;;;;;;88.40;35.63;;;0.10;99.90;;;;;;5034912;28;20156;-72
2022/12/11 02:29:37;;;;;;;94.63;35.30;;;0.10;99.90;;;;;;5035118;28;20053;-72
2022/12/11 02:32:31;;;;;;;123.88;39.30;;;0.10;99.90;;;;;;5034932;28;20041;-72
2022/12/11 02:35:15;;;;;;;86.47;34.20;;;0.30;99.90;;;;;;5008499;28;20393;-73
2022/12/11 02:37:45;;;;;;;89.15;33.58;;;0.20;99.90;;;;;;5034902;28;20041;-73
2022/12/11 02:40:15;;;;;;;104.03;35.92;;;0.20;99.90;;;;;;5034604;28;20394;-72
2022/12/11 02:42:43;;;;;;;101.15;35.30;;;0.70;99.90;;;;;;5035173;28;20053;-72
2022/12/11 02:45:09;;;;;;;88.20;33.70;;;0.20;99.90;;;;;;5017606;28;20069;-72
2022/12/11 02:47:36;;;;;;;94.22;35.28;;;0.20;99.90;;;;;;5035377;28;20385;-72
2022/12/11 02:50:08;;;;;;;85.43;34.40;;;0.30;99.90;;;;;;5034846;28;20120;-72
2022/12/11 02:52:36;;;;;;;111.75;37.22;;;0.30;99.90;;;;;;5034974;28;20095;-73
2022/12/11 02:55:03;;;;;;;87.65;32.05;;;0.50;99.90;;;;;;5034670;28;20041;-73
2022/12/11 02:57:50;;;;;;;83.90;33.17;;;0.30;99.90;;;;;;5035037;28;20183;-73
2022/12/11 03:00:18;;;;;;;83.57;32.95;;;0.30;99.90;;;;;;5035040;28;20049;-73
2022/12/11 03:02:44;;;;;;;89.93;32.50;;;0.30;99.90;;;;;;5035494;28;20042;-74
2022/12/11 03:05:12;;;;;;;92.47;32.50;;;0.30;99.90;;;;;;5017718;28;20053;-73
2022/12/11 03:07:40;;;;;;;95.07;33.97;;;0.30;99.90;;;;;;5035170;28;20179;-73
2022/12/11 03:10:09;;;;;;;75.93;30.20;;;0.30;99.90;;;;;;5034857;28;20060;-73
2022/12/11 03:12:41;;;;;;;79.45;30.80;;;0.30;99.90;;;;;;5001452;28;20067;-73
2022/12/11 03:15:12;;;;;;;106.45;34.65;;;0.30;99.90;;;;;;5035057;28;20150;-73
2022/12/11 03:18:07;;;;;;;94.63;33.40;;;0.30;99.90;;;;;;5000796;28;20442;-73
2022/12/11 03:20:43;;;;;;;103.30;32.55;;;0.30;99.90;;;;;;5008495;28;20119;-73
2022/12/11 03:23:08;;;;;;;88.90;32.60;;;0.30;99.90;;;;;;5017818;28;20175;-73
2022/12/11 03:25:54;;;;;;;92.90;31.38;;;0.30;99.90;;;;;;5034386;28;20107;-73
2022/12/11 03:28:45;;;;;;;92.68;33.97;;;0.30;99.90;;;;;;5017153;28;20054;-73
2022/12/11 03:31:38;;;;;;;93.70;33.35;;;0.40;99.90;;;;;;5034690;28;20044;-73
2022/12/11 03:34:17;;;;;;;92.95;33.05;;;0.40;99.90;;;;;;5016830;28;20045;-73
2022/12/11 03:36:44;;;;;;;103.35;33.95;;;0.30;99.90;;;;;;5034788;28;20164;-73
2022/12/11 03:39:15;;;;;;;93.45;33.55;;;0.30;99.90;;;;;;5000456;28;20469;-73
2022/12/11 03:41:42;;;;;;;80.85;30.10;;;0.30;99.90;;;;;;5034337;28;20045;-73
2022/12/11 03:44:10;;;;;;;80.85;31.08;;;0.40;99.90;;;;;;5017187;28;20046;-73
2022/12/11 03:46:38;;;;;;;82.13;31.15;;;0.40;99.90;;;;;;5017172;28;20037;-73
2022/12/11 03:49:18;;;;;;;112.55;35.17;;;0.40;99.90;;;;;;5034933;28;20417;-73
2022/12/11 03:51:47;;;;;;;101.93;32.38;;;0.40;99.90;;;;;;5034594;28;20331;-73
2022/12/11 03:54:13;;;;;;;76.80;30.23;;;0.40;99.90;;;;;;5034579;28;20349;-73
2022/12/11 03:56:41;;;;;;;99.10;32.70;;;0.40;99.90;;;;;;5034270;28;20056;-73
2022/12/11 03:59:07;;;;;;;86.10;30.77;;;0.40;99.90;;;;;;5034483;28;20061;-73
2022/12/11 04:01:33;;;;;;;95.43;32.42;;;0.40;99.90;;;;;;5034763;28;20058;-72
2022/12/11 04:03:59;;;;;;;99.85;32.92;;;0.40;99.90;;;;;;5034447;28;20045;-72
2022/12/11 04:06:24;;;;;;;76.60;30.30;;;0.40;99.90;;;;;;5034184;28;20465;-73
2022/12/11 04:08:50;;;;;;;85.78;31.48;;;0.40;99.90;;;;;;5033947;28;20103;-72
2022/12/11 04:11:34;;;;;;;83.90;29.85;;;0.40;99.90;;;;;;5033972;28;20041;-72
2022/12/11 04:16:52;;;;;;;79.25;31.23;;;0.40;99.90;;;;;;5037991;28;20405;-72
2022/12/11 04:24:50;;;;;;;85.50;32.47;;;0.40;99.90;;;;;;5037632;28;20048;-72
2022/12/11 04:30:06;;;;;;;96.85;32.85;;;0.40;99.90;;;;;;5037592;28;20087;-72
2022/12/11 04:32:32;;;;;;;95.43;33.42;;;0.40;99.90;;;;;;5037499;28;20107;-72
2022/12/11 04:34:57;;;;;;;115.63;35.22;;;0.40;99.90;;;;;;5037300;28;20042;-72
2022/12/11 04:37:23;;;;;;;78.43;31.58;;;0.40;99.90;;;;;;5037807;28;20056;-72
2022/12/11 04:39:49;;;;;;;101.65;35.10;;;0.50;99.90;;;;;;5019504;28;20034;-73
2022/12/11 04:42:15;;;;;;;99.45;34.95;;;0.50;99.90;;;;;;5037111;28;20335;-72
2022/12/11 04:44:41;;;;;;;94.63;32.75;;;0.50;99.90;;;;;;5037219;28;20054;-73
2022/12/11 04:47:06;;;;;;;93.75;33.63;;;0.50;99.90;;;;;;5037230;28;20473;-73
2022/12/11 04:49:32;;;;;;;108.57;34.08;;;0.40;99.90;;;;;;5037823;28;20038;-73
2022/12/11 04:51:57;;;;;;;95.03;34.40;;;0.90;99.90;;;;;;5037213;28;20137;-73
2022/12/11 04:54:28;;;;;;;98.10;33.15;;;0.50;99.90;;;;;;5019201;28;20041;-73
2022/12/11 04:56:54;;;;;;;106.80;35.05;;;0.40;99.90;;;;;;5036923;28;20405;-73
2022/12/11 04:59:19;;;;;;;91.10;32.30;;;0.40;99.90;;;;;;5037506;28;20060;-73
2022/12/11 05:01:47;;;;;;;101.20;33.50;;;0.80;99.90;;;;;;5019718;28;20053;-73
2022/12/11 05:04:13;;;;;;;113.20;36.42;;;0.50;99.90;;;;;;5036960;28;20041;-73
2022/12/11 05:06:39;;;;;;;91.72;32.83;;;0.50;99.90;;;;;;5037255;28;20046;-73
2022/12/11 05:09:05;;;;;;;97.55;33.90;;;0.50;99.90;;;;;;5019355;28;20053;-73
2022/12/11 05:11:30;;;;;;;106.85;36.05;;;0.50;99.90;;;;;;5019700;28;20396;-73
2022/12/11 05:13:56;;;;;;;93.53;34.05;;;0.50;99.90;;;;;;5036566;28;20485;-73
2022/12/11 05:16:25;;;;;;;97.40;34.88;;;0.50;99.90;;;;;;5019616;28;20038;-72
2022/12/11 05:18:50;;;;;;;91.75;34.08;;;0.50;99.90;;;;;;5036630;28;20052;-73
2022/12/11 05:21:21;;;;;;;95.07;34.67;;;0.50;99.90;;;;;;5036708;28;20051;-73
2022/12/11 05:23:47;;;;;;;119.35;37.25;;;0.50;99.90;;;;;;5036278;28;20034;-73
2022/12/11 05:26:18;;;;;;;120.72;36.88;;;0.50;99.90;;;;;;5036196;28;20048;-73
2022/12/11 05:28:44;;;;;;;87.70;34.00;;;0.50;99.90;;;;;;5036283;28;20045;-73
2022/12/11 05:31:14;;;;;;;111.40;36.65;;;0.60;99.90;;;;;;5036339;28;20349;-73
2022/12/11 05:33:40;;;;;;;102.57;36.40;;;0.50;99.90;;;;;;5036413;28;20033;-73
2022/12/11 05:36:06;;;;;;;107.75;36.13;;;0.60;99.90;;;;;;5036971;28;20080;-73
2022/12/11 05:38:32;;;;;;;92.70;34.95;;;0.60;99.90;;;;;;5002021;28;20056;-72
2022/12/11 05:41:02;;;;;;;112.70;36.70;;;0.60;99.90;;;;;;5035937;28;20041;-73
2022/12/11 05:43:30;;;;;;;109.07;36.65;;;0.90;99.90;;;;;;5036090;28;20065;-73
2022/12/11 05:46:12;;;;;;;89.00;33.40;;;0.60;99.90;;;;;;5018679;28;20124;-73
2022/12/11 05:48:39;;;;;;;94.82;33.65;;;0.50;99.90;;;;;;5018452;28;20045;-73
2022/12/11 05:51:07;;;;;;;103.68;36.60;;;0.50;99.90;;;;;;5035879;28;20090;-73
2022/12/11 05:53:34;;;;;;;102.80;34.83;;;0.40;99.90;;;;;;5035631;28;20065;-73
2022/12/11 05:56:02;;;;;;;84.20;32.75;;;0.60;99.90;;;;;;5035921;28;20047;-73
2022/12/11 05:58:27;;;;;;;94.28;35.50;;;0.50;99.90;;;;;;5035691;28;20049;-72
2022/12/11 06:00:59;;;;;;;114.63;34.33;;;0.50;99.90;;;;;;5036594;28;20046;-72
2022/12/11 06:03:24;;;;;;;89.97;34.05;;;0.60;99.90;;;;;;5035993;28;20135;-72
2022/12/11 06:05:50;;;;;;;103.18;36.20;;;0.50;99.90;;;;;;5017942;28;20092;-72
2022/12/11 06:08:19;;;;;;;85.63;32.15;;;0.50;99.90;;;;;;5035238;28;20045;-72
2022/12/11 06:10:49;;;;;;;98.32;36.15;;;0.60;99.90;;;;;;5035699;28;20050;-72
2022/12/11 06:13:15;;;;;;;97.85;34.72;;;0.80;99.90;;;;;;5018800;28;20068;-73
2022/12/11 06:15:41;;;;;;;111.22;37.08;;;0.50;99.90;;;;;;5035674;28;20365;-73
2022/12/11 06:18:07;;;;;;;104.38;36.08;;;0.60;99.90;;;;;;5035640;28;20049;-74
2022/12/11 06:20:34;;;;;;;101.53;35.45;;;0.60;99.90;;;;;;5019304;28;20041;-72
2022/12/11 06:23:00;;;;;;;97.40;34.85;;;0.60;99.90;;;;;;5037485;28;20077;-72
2022/12/11 06:25:26;;;;;;;92.32;33.53;;;0.60;99.90;;;;;;5035609;28;20037;-72
2022/12/11 06:27:52;;;;;;;86.13;33.45;;;0.60;99.90;;;;;;5035269;28;20508;-72
2022/12/11 06:30:17;;;;;;;105.03;35.08;;;0.80;99.90;;;;;;5035543;28;20042;-72
2022/12/11 06:32:43;;;;;;;91.45;33.78;;;0.60;99.90;;;;;;5035398;28;20052;-72
2022/12/11 06:35:10;;;;;;;97.20;34.83;;;0.60;99.90;;;;;;5016899;28;20489;-73
2022/12/11 06:37:40;;;;;;;100.45;34.03;;;0.60;99.90;;;;;;5003415;28;20041;-71
2022/12/11 06:40:07;;;;;;;100.90;33.97;;;0.60;99.90;;;;;;5035764;28;20075;-73
2022/12/11 06:42:33;;;;;;;100.70;35.42;;;0.60;99.90;;;;;;5035093;28;20098;-73
2022/12/11 06:44:59;;;;;;;114.07;35.58;;;0.60;99.90;;;;;;5035788;28;20103;-72
2022/12/11 06:47:26;;;;;;;94.05;34.25;;;0.60;99.90;;;;;;5013117;28;20241;-73
2022/12/11 06:49:52;;;;;;;101.45;35.22;;;0.60;99.90;;;;;;5013210;28;20462;-73
2022/12/11 06:52:19;;;;;;;78.68;31.63;;;0.60;99.90;;;;;;4996621;28;20165;-73
2022/12/11 06:54:45;;;;;;;95.22;32.80;;;0.60;99.90;;;;;;5013014;28;20053;-73
2022/12/11 06:57:11;;;;;;;84.05;31.00;;;0.60;99.90;;;;;;5012994;28;20073;-73
2022/12/11 06:59:36;;;;;;;83.50;31.10;;;0.60;99.90;;;;;;5012893;28;20474;-73
2022/12/11 07:02:02;;;;;;;82.30;31.70;;;0.60;99.90;;;;;;5013685;28;20085;-73
2022/12/11 07:04:29;;;;;;;93.28;32.97;;;0.70;99.90;;;;;;5013432;28;20414;-74
2022/12/11 07:06:55;;;;;;;89.40;32.35;;;1.40;99.90;;;;;;5012672;28;20467;-73
2022/12/11 07:09:22;;;;;;;84.95;32.50;;;0.60;99.90;;;;;;5013004;28;20052;-73
2022/12/11 07:11:50;;;;;;;97.22;33.30;;;0.60;99.90;;;;;;5012989;28;20113;-73
2022/12/11 07:14:19;;;;;;;88.32;32.30;;;0.70;99.90;;;;;;5012920;28;20042;-73
2022/12/11 07:16:45;;;;;;;96.53;33.17;;;1.50;99.90;;;;;;5013078;28;20081;-74
2022/12/11 07:19:11;;;;;;;96.57;33.47;;;0.60;99.90;;;;;;5031137;28;20050;-73
2022/12/11 07:21:36;;;;;;;94.90;34.17;;;0.60;99.90;;;;;;5034436;28;20037;-73
2022/12/11 07:24:02;;;;;;;89.75;33.70;;;0.60;99.90;;;;;;5034935;28;20052;-74
2022/12/11 07:26:28;;;;;;;126.30;36.97;;;0.60;99.90;;;;;;5017543;28;20084;-73
2022/12/11 07:28:57;;;;;;;106.22;35.97;;;0.60;99.90;;;;;;5035031;28;20482;-73
2022/12/11 07:31:28;;;;;;;104.30;35.63;;;0.60;99.90;;;;;;5034300;28;20115;-73
2022/12/11 07:33:59;;;;;;;108.97;35.55;;;0.60;99.90;;;;;;5034499;28;20045;-74
2022/12/11 07:36:26;;;;;;;93.13;34.35;;;0.60;99.90;;;;;;5000602;28;20064;-73
2022/12/11 07:38:52;;;;;;;100.88;34.10;;;0.60;99.90;;;;;;5034639;28;20049;-74
2022/12/11 07:41:18;;;;;;;110.63;34.25;;;0.60;99.90;;;;;;5034584;28;20034;-74
2022/12/11 07:43:44;;;;;;;102.63;33.95;;;0.60;99.90;;;;;;5034113;28;20125;-73
2022/12/11 07:46:13;;;;;;;104.90;33.88;;;0.60;99.90;;;;;;5018413;28;20041;-74
2022/12/11 07:48:40;;;;;;;114.88;36.53;;;0.60;99.90;;;;;;5038900;28;20060;-73
2022/12/11 07:51:19;;;;;;;114.82;35.45;;;0.60;99.90;;;;;;5038180;28;20370;-73
2022/12/11 07:53:47;;;;;;;115.35;37.42;;;0.60;99.90;;;;;;5038221;28;20103;-73
2022/12/11 07:56:13;;;;;;;104.22;34.70;;;0.60;99.90;;;;;;5037781;28;20361;-74
2022/12/11 07:58:39;;;;;;;101.05;34.45;;;0.60;99.90;;;;;;5037982;28;20049;-74
2022/12/11 08:01:24;;;;;;;105.05;34.83;;;0.60;99.90;;;;;;5020163;28;20472;-74
2022/12/11 08:03:51;;;;;;;92.68;32.70;;;0.70;99.90;;;;;;5038152;28;20060;-74
2022/12/11 08:06:24;;;;;;;84.88;31.98;;;0.60;99.90;;;;;;5037381;28;20045;-74
2022/12/11 08:08:52;;;;;;;120.55;35.47;;;0.70;99.90;;;;;;5037733;28;20083;-74
2022/12/11 08:11:18;;;;;;;94.32;33.33;;;0.70;99.90;;;;;;5037882;28;20515;-73
2022/12/11 08:13:44;;;;;;;111.05;35.75;;;0.60;99.90;;;;;;5037848;28;20045;-74
2022/12/11 08:16:12;;;;;;;98.90;33.53;;;1.30;99.90;;;;;;5037499;28;20052;-74
2022/12/11 08:18:38;;;;;;;104.72;35.03;;;0.60;99.90;;;;;;5037762;28;20053;-73
2022/12/11 08:21:10;;;;;;;94.78;33.40;;;0.70;99.90;;;;;;5020279;28;20369;-74
2022/12/11 08:23:35;;;;;;;105.80;34.17;;;0.70;99.90;;;;;;5003454;28;20045;-73
2022/12/11 08:26:06;;;;;;;93.68;33.97;;;0.70;99.90;;;;;;5037687;28;20346;-73
2022/12/11 08:28:32;;;;;;;111.18;34.17;;;0.70;99.90;;;;;;5037570;28;20349;-73
2022/12/11 08:30:58;;;;;;;99.93;33.72;;;0.70;99.90;;;;;;5037063;28;20051;-73
2022/12/11 08:33:26;;;;;;;99.50;34.78;;;0.70;99.90;;;;;;5020049;28;20072;-73
2022/12/11 08:35:52;;;;;;;118.22;34.10;;;0.70;99.90;;;;;;5037560;28;20124;-74
2022/12/11 08:38:18;;;;;;;103.07;33.75;;;0.70;99.90;;;;;;5037475;28;20120;-74
2022/12/11 08:40:43;;;;;;;116.93;34.83;;;0.70;99.90;;;;;;5037299;28;20052;-74
2022/12/11 08:43:09;;;;;;;98.55;33.65;;;0.70;99.90;;;;;;5037599;28;20045;-73
2022/12/11 08:45:35;;;;;;;89.22;32.90;;;1.00;99.90;;;;;;5036615;28;20050;-73
2022/12/11 08:48:00;;;;;;;106.32;35.22;;;1.30;99.90;;;;;;5037149;28;20161;-73
2022/12/11 08:50:26;;;;;;;106.22;35.20;;;0.70;99.90;;;;;;5037452;28;20499;-73
2022/12/11 08:52:52;;;;;;;112.70;36.17;;;0.80;99.90;;;;;;5037090;28;20033;-74
2022/12/11 08:55:18;;;;;;;85.35;32.20;;;0.80;99.90;;;;;;5036928;28;20068;-74
2022/12/11 08:57:44;;;;;;;116.32;35.00;;;0.70;99.90;;;;;;5036464;28;20068;-73
2022/12/11 09:00:11;;;;;;;86.72;32.05;;;0.80;99.90;;;;;;5036773;28;20357;-74
2022/12/11 09:02:37;;;;;;;103.80;34.47;;;0.70;99.90;;;;;;5036701;28;20040;-74
2022/12/11 09:05:06;;;;;;;91.03;34.58;;;0.80;99.90;;;;;;5037126;28;20041;-74
2022/12/11 09:07:33;;;;;;;128.93;37.17;;;0.70;99.90;;;;;;5036713;28;20045;-74
2022/12/11 09:09:59;;;;;;;93.28;33.70;;;0.80;99.90;;;;;;5036736;28;20139;-74
2022/12/11 09:12:27;;;;;;;109.63;36.22;;;0.70;99.90;;;;;;5036834;28;20045;-74
2022/12/11 09:14:53;;;;;;;94.63;35.28;;;0.80;99.90;;;;;;5036274;28;20049;-73
2022/12/11 09:17:19;;;;;;;99.70;36.65;;;0.80;99.90;;;;;;5017888;28;20354;-74
2022/12/11 09:19:44;;;;;;;111.25;36.60;;;0.80;99.90;;;;;;5034961;28;20044;-71
2022/12/11 09:22:11;;;;;;;116.90;41.45;;;0.80;99.90;;;;;;5037051;28;20140;-74
2022/12/11 09:24:37;;;;;;;142.60;42.88;;;0.80;99.90;;;;;;5036684;28;20042;-71
2022/12/11 09:27:04;;;;;;;106.63;37.13;;;1.20;99.90;;;;;;5036588;28;20416;-71
2022/12/11 09:29:30;;;;;;;112.03;38.95;;;0.80;99.90;;;;;;5018824;28;20053;-73
2022/12/11 09:31:56;;;;;;;105.65;36.67;;;0.80;99.90;;;;;;5036222;28;20351;-73
2022/12/11 09:34:22;;;;;;;108.38;35.25;;;0.80;99.90;;;;;;5035746;28;20052;-73
2022/12/11 09:36:47;;;;;;;97.18;36.20;;;0.90;99.90;;;;;;5035968;28;20037;-73
2022/12/11 09:39:15;;;;;;;101.00;34.95;;;0.90;99.90;;;;;;5036207;28;20110;-73
2022/12/11 09:42:01;;;;;;;120.00;38.63;;;0.90;99.90;;;;;;5036258;28;20049;-73
2022/12/11 09:44:50;;;;;;;121.80;38.63;;;0.90;99.90;;;;;;5036263;28;20173;-73
2022/12/11 09:47:41;;;;;;;100.97;36.38;;;0.90;99.90;;;;;;5035716;28;20049;-73
2022/12/11 09:50:10;;;;;;;114.28;37.20;;;1.00;99.90;;;;;;5035680;28;20052;-73
2022/12/11 09:52:57;;;;;;;98.28;36.25;;;1.00;99.90;;;;;;5035616;28;20069;-73
2022/12/11 09:55:28;;;;;;;97.07;36.65;;;1.00;99.90;;;;;;5035721;28;20408;-73
2022/12/11 09:58:09;;;;;;;97.85;35.50;;;1.00;99.90;;;;;;5035324;28;20100;-73
2022/12/11 10:00:53;;;;;;;90.15;35.83;;;1.00;99.90;;;;;;5035943;28;20045;-73
2022/12/11 10:03:37;;;;;;;110.40;37.28;;;1.00;99.90;;;;;;5035396;28;20373;-73
2022/12/11 10:06:39;;;;;;;103.28;39.05;;;1.00;99.90;;;;;;5035368;28;20056;-72
2022/12/11 10:09:15;;;;;;;128.57;43.50;;;1.10;99.90;;;;;;5035114;28;20124;-73
2022/12/11 10:12:01;;;;;;;96.90;37.15;;;1.10;99.90;;;;;;5035378;28;20042;-71
2022/12/11 10:14:45;;;;;;;102.78;37.67;;;1.00;99.90;;;;;;5035629;28;20068;-73
2022/12/11 10:17:14;;;;;;;99.25;35.90;;;1.00;99.90;;;;;;5037869;28;20096;-72
2022/12/11 10:19:41;;;;;;;84.55;35.83;;;1.10;99.90;;;;;;5035224;28;20060;-72
2022/12/11 10:22:21;;;;;;;98.28;36.90;;;1.10;99.90;;;;;;5035506;28;20132;-72
2022/12/11 10:24:55;;;;;;;95.70;37.75;;;1.10;99.90;;;;;;5035328;28;20033;-73
2022/12/11 10:27:25;;;;;;;112.85;38.40;;;1.10;99.90;;;;;;5035239;28;20056;-73
2022/12/11 10:30:13;;;;;;;99.50;36.63;;;1.10;99.90;;;;;;5035476;28;20052;-74
2022/12/11 10:32:48;;;;;;;110.30;38.40;;;1.10;99.90;;;;;;5035079;28;20058;-72
2022/12/11 10:35:27;;;;;;;89.85;36.45;;;1.10;99.90;;;;;;5034942;28;20401;-72
2022/12/11 10:38:00;;;;;;;105.40;41.70;;;1.20;99.90;;;;;;5035224;28;20072;-72
2022/12/11 10:40:29;;;;;;;95.00;38.95;;;1.20;99.90;;;;;;5035247;28;20045;-72
2022/12/11 10:42:55;;;;;;;111.50;40.70;;;1.20;99.90;;;;;;5035092;28;20033;-72
2022/12/11 10:45:21;;;;;;;159.90;38.25;;;1.20;99.90;;;;;;5035015;28;20442;-72
2022/12/11 10:47:48;;;;;;;89.25;36.10;;;1.30;99.90;;;;;;5002892;28;20041;-71
2022/12/11 10:50:24;;;;;;;100.93;42.13;;;1.30;99.90;;;;;;5034785;28;20037;-73
2022/12/11 10:52:51;;;;;;;92.03;40.60;;;1.20;99.90;;;;;;5017224;28;20096;-73
2022/12/11 10:55:26;;;;;;;97.82;41.38;;;1.30;99.90;;;;;;5034864;28;20033;-73
2022/12/11 10:58:04;;;;;;;106.78;39.60;;;1.30;99.90;;;;;;5034607;28;20412;-72
2022/12/11 11:00:40;;;;;;;99.85;41.03;;;1.30;99.90;;;;;;5034495;28;20115;-73
2022/12/11 11:03:21;;;;;;;112.13;50.80;;;1.30;99.90;;;;;;5017143;28;20077;-72
2022/12/11 11:06:01;;;;;;;110.00;48.65;;;1.30;99.90;;;;;;5034892;28;20068;-72
2022/12/11 11:08:27;;;;;;;94.32;39.88;;;0.70;99.90;;;;;;5017354;28;20048;-72
2022/12/11 11:10:58;;;;;;;79.72;35.70;;;1.60;99.90;;;;;;5017345;28;20042;-71
2022/12/11 11:13:30;;;;;;;92.53;37.53;;;1.30;99.90;;;;;;5032696;28;20365;-70
2022/12/11 11:16:08;;;;;;;105.13;43.42;;;1.30;99.90;;;;;;5031731;28;20042;-70
2022/12/11 11:18:35;;;;;;;104.53;40.88;;;1.30;99.90;;;;;;5033159;28;20052;-72
2022/12/11 11:21:02;;;;;;;102.63;40.58;;;1.30;99.90;;;;;;4998974;28;20057;-71
2022/12/11 11:23:28;;;;;;;100.75;37.90;;;1.40;99.90;;;;;;5020627;28;20325;-70
2022/12/11 11:26:00;;;;;;;85.72;36.22;;;1.30;99.90;;;;;;5034477;28;20049;-69
2022/12/11 11:28:33;;;;;;;99.93;39.22;;;1.40;99.90;;;;;;5038005;28;20091;-69
2022/12/11 11:31:10;;;;;;;83.43;35.08;;;1.60;99.90;;;;;;5036564;28;20037;-70
2022/12/11 11:33:44;;;;;;;93.95;36.80;;;1.30;99.90;;;;;;5037569;28;20056;-70
2022/12/11 11:36:21;;;;;;;76.40;33.63;;;1.30;99.90;;;;;;5036809;28;20530;-70
2022/12/11 11:38:58;;;;;;;99.38;37.33;;;1.30;99.90;;;;;;5037843;28;20099;-71
2022/12/11 11:41:30;;;;;;;98.28;37.22;;;1.30;99.90;;;;;;5037371;28;20037;-70
2022/12/11 11:44:01;;;;;;;90.43;37.80;;;1.30;99.90;;;;;;5037296;28;20041;-70
2022/12/11 11:47:03;;;;;;;92.93;38.13;;;1.30;99.90;;;;;;5037571;28;20041;-70
2022/12/11 11:49:49;;;;;;;83.05;35.70;;;1.30;99.90;;;;;;5019653;28;20053;-70
2022/12/11 11:52:28;;;;;;;80.32;34.65;;;1.40;99.90;;;;;;5037633;28;20046;-69
2022/12/11 11:54:59;;;;;;;96.25;37.67;;;1.40;99.90;;;;;;5037629;28;20358;-69
2022/12/11 11:57:37;;;;;;;96.50;37.70;;;1.40;99.90;;;;;;5037296;28;20053;-70
2022/12/11 12:00:27;;;;;;;83.93;35.50;;;1.40;99.90;;;;;;5019228;28;20088;-70
2022/12/11 12:03:20;;;;;;;76.22;34.30;;;1.40;99.90;;;;;;5025203;28;20449;-70
2022/12/11 12:05:58;;;;;;;90.22;36.50;;;1.40;99.90;;;;;;5033695;28;20362;-70
2022/12/11 12:08:54;;;;;;;89.38;37.45;;;1.40;99.90;;;;;;5037432;28;20048;-70
2022/12/11 12:11:46;;;;;;;85.10;37.22;;;1.40;99.90;;;;;;5037471;28;20041;-70
2022/12/11 12:14:23;;;;;;;96.80;39.25;;;1.40;99.90;;;;;;5036900;28;20149;-70
2022/12/11 12:16:58;;;;;;;100.90;38.90;;;1.50;99.90;;;;;;5036671;28;20073;-71
2022/12/11 12:19:52;;;;;;;92.05;37.67;;;1.50;99.90;;;;;;5037266;28;20362;-69
2022/12/11 12:22:56;;;;;;;86.68;36.58;;;1.40;99.90;;;;;;5037363;28;20037;-69
2022/12/11 12:25:31;;;;;;;84.47;36.35;;;1.50;99.90;;;;;;5037063;28;20357;-71
2022/12/11 12:28:21;;;;;;;89.53;37.72;;;1.50;99.90;;;;;;5037161;28;20349;-70
2022/12/11 12:31:07;;;;;;;93.55;37.55;;;1.40;99.90;;;;;;5036217;28;20048;-70
2022/12/11 12:33:56;;;;;;;84.63;35.92;;;1.40;99.90;;;;;;5035706;28;20045;-69
2022/12/11 12:36:31;;;;;;;84.47;35.92;;;1.40;99.90;;;;;;5019570;28;20107;-70
2022/12/11 12:39:07;;;;;;;95.57;38.03;;;1.50;99.90;;;;;;5038010;28;20053;-72
2022/12/11 12:41:35;;;;;;;82.72;35.78;;;1.40;99.90;;;;;;5036995;28;20049;-70
2022/12/11 12:44:22;;;;;;;93.53;37.45;;;1.50;99.90;;;;;;5036815;28;20041;-71
2022/12/11 12:47:07;;;;;;;88.82;37.13;;;1.50;99.90;;;;;;5036372;28;20053;-68
2022/12/11 12:49:40;;;;;;;86.53;35.55;;;1.50;99.90;;;;;;5037246;28;20116;-70
2022/12/11 12:52:15;;;;;;;90.25;36.88;;;1.50;99.90;;;;;;5036249;28;20047;-71
2022/12/11 12:55:12;;;;;;;93.05;36.85;;;2.30;99.90;;;;;;5033733;28;20048;-71
2022/12/11 12:57:32;;;;;;;92.70;37.78;;;1.40;99.90;;;;;;5034009;28;20057;-70
2022/12/11 12:59:58;;;;;;;105.68;42.83;;;1.40;99.90;;;;;;5034496;28;20111;-69
2022/12/11 13:02:27;;;;;;;83.13;35.38;;;1.40;99.90;;;;;;5035420;28;20042;-70